createdAt,value
2019-02-07T00:05:59.334Z,1.5
2019-02-07T00:16:02.779Z,1.6
2019-02-07T00:26:06.253Z,1.7
2019-02-07T00:36:09.738Z,1.7
2019-02-07T00:46:13.191Z,1.5
2019-02-07T00:56:16.689Z,1.7
2019-02-07T01:06:21.132Z,1.7
2019-02-07T01:16:24.594Z,1.7
2019-02-07T01:26:28.033Z,1.7
2019-02-07T01:36:31.483Z,1.7
2019-02-07T01:46:36.093Z,1.7
2019-02-07T01:56:39.555Z,1.7
2019-02-07T02:06:43.004Z,1.7
2019-02-07T02:16:46.432Z,1.8
2019-02-07T02:26:50.748Z,1.7
2019-02-07T02:36:54.169Z,1.6
2019-02-07T02:46:57.635Z,1.7
2019-02-07T02:57:01.116Z,1.4
2019-02-07T03:07:05.844Z,1.4
2019-02-07T03:17:09.305Z,1.3
2019-02-07T03:27:12.951Z,1.5
2019-02-07T03:37:16.471Z,1.5
2019-02-07T03:47:19.955Z,1.6
2019-02-07T03:57:23.426Z,1.5
2019-02-07T04:07:26.875Z,1.6
2019-02-07T04:17:30.316Z,1.6
2019-02-07T04:27:33.824Z,1.8
2019-02-07T04:37:37.262Z,1.6
2019-02-07T04:47:40.727Z,1.7
2019-02-07T04:57:44.190Z,1.7
2019-02-07T05:07:47.612Z,1.5
2019-02-07T05:17:52.267Z,1.4
2019-02-07T05:27:55.740Z,1.3
2019-02-07T05:37:59.199Z,1.4
2019-02-07T05:48:02.638Z,1.6
2019-02-07T05:58:07.463Z,1.6
2019-02-07T06:08:10.971Z,1.3
2019-02-07T06:18:14.393Z,1.6
2019-02-07T06:28:17.864Z,1.5
2019-02-07T06:38:22.101Z,1.7
2019-02-07T06:48:25.553Z,1.5
2019-02-07T06:58:28.976Z,1.7
2019-02-07T07:08:32.456Z,1.7
2019-02-07T07:18:35.875Z,1.9
2019-02-07T07:28:39.352Z,1.9
2019-02-07T07:38:42.805Z,2
2019-02-07T07:48:46.257Z,2
2019-02-07T07:58:49.785Z,1.9
2019-02-07T08:08:54.005Z,2
2019-02-07T08:18:57.450Z,2.1
2019-02-07T08:29:00.901Z,2.1
2019-02-07T08:39:04.480Z,2.3
2019-02-07T08:49:07.943Z,2.5
2019-02-07T08:59:11.364Z,2.7
2019-02-07T09:09:14.817Z,2.7
2019-02-07T09:19:18.271Z,2.7
2019-02-07T09:29:21.711Z,2.7
2019-02-07T09:39:25.196Z,2.9
2019-02-07T09:49:28.650Z,3.2
2019-02-07T09:59:32.115Z,3.1
2019-02-07T10:09:35.583Z,3.3
2019-02-07T10:19:40.235Z,3.4
2019-02-07T10:29:43.654Z,3.6
2019-02-07T10:39:47.102Z,3.7
2019-02-07T10:49:58.861Z,3.5
2019-02-07T11:00:03.090Z,3.5
2019-02-07T11:10:06.546Z,3.7
2019-02-07T11:20:10.004Z,3.6
2019-02-07T11:30:13.411Z,3.6
2019-02-07T11:40:16.836Z,3.8
2019-02-07T11:50:20.935Z,3.9
2019-02-07T12:00:24.383Z,3.9
2019-02-07T12:10:27.815Z,3.9
2019-02-07T12:20:31.223Z,4
2019-02-07T12:30:34.720Z,4.1
2019-02-07T12:40:38.191Z,4.1
2019-02-07T12:50:41.614Z,4.2
2019-02-07T13:00:45.079Z,4.2
2019-02-07T13:10:48.517Z,4.3
2019-02-07T13:20:53.172Z,2.1
2019-02-07T13:30:56.661Z,4.3
2019-02-07T13:41:00.148Z,4.3
2019-02-07T13:51:03.598Z,4.4
2019-02-07T14:01:07.059Z,4.4
2019-02-07T14:11:10.631Z,4.4
2019-02-07T14:21:14.113Z,4.4
2019-02-07T14:31:17.568Z,4.4
2019-02-07T14:41:21.006Z,4.4
2019-02-07T14:51:25.372Z,4.4
2019-02-07T15:01:28.907Z,4.6
2019-02-07T15:11:32.323Z,4.6
2019-02-07T15:21:35.748Z,4.7
2019-02-07T15:31:39.635Z,4.5
2019-02-07T15:41:43.045Z,4.5
2019-02-07T15:51:46.524Z,4.5
2019-02-07T16:01:49.952Z,4.7
2019-02-07T16:11:53.391Z,4.4
2019-02-07T16:21:56.830Z,4.5
2019-02-07T16:32:00.289Z,4.4
2019-02-07T16:42:05.921Z,4.6
2019-02-07T16:52:11.956Z,4.6
2019-02-07T17:02:15.413Z,4.5
2019-02-07T17:12:18.828Z,4.7
2019-02-07T17:22:22.296Z,4.6
2019-02-07T17:32:25.774Z,4.5
2019-02-07T17:42:29.220Z,4.5
2019-02-07T17:52:32.631Z,4.5
2019-02-07T18:02:36.156Z,4.5
2019-02-07T18:12:40.488Z,4.6
2019-02-07T18:22:43.952Z,4.9
2019-02-07T18:32:47.375Z,4.9
2019-02-07T18:42:50.813Z,5
2019-02-07T18:52:55.475Z,5
2019-02-07T19:02:58.950Z,5
2019-02-07T19:13:02.386Z,5
2019-02-07T19:23:05.866Z,5
2019-02-07T19:33:09.358Z,5.1
2019-02-07T19:43:12.873Z,5.1
2019-02-07T19:53:16.292Z,5.1
2019-02-07T20:03:19.806Z,5.1
2019-02-07T20:13:23.244Z,5.2
2019-02-07T20:23:26.675Z,5.1
2019-02-07T20:33:30.142Z,4.9
2019-02-07T20:43:34.632Z,5.1
2019-02-07T20:53:38.104Z,5
2019-02-07T21:03:41.578Z,5
2019-02-07T21:13:46.368Z,4.9
2019-02-07T21:23:49.857Z,5
2019-02-07T21:33:53.317Z,4.9
2019-02-07T21:43:56.814Z,4.7
2019-02-07T21:54:00.283Z,4.6
2019-02-07T22:04:03.765Z,4.6
2019-02-07T22:14:07.189Z,4.5
2019-02-07T22:24:11.850Z,4.5
2019-02-07T22:34:15.304Z,4.8
2019-02-07T22:44:18.748Z,5
2019-02-07T22:54:22.205Z,5.1
2019-02-07T23:04:25.636Z,5.2
2019-02-07T23:14:29.205Z,5
2019-02-07T23:24:32.677Z,5.2
2019-02-07T23:34:36.137Z,5.3
2019-02-07T23:44:39.583Z,5.3
2019-02-07T23:54:43.037Z,5.2
